Geervliet — PCLI — position and weather

sailwx.info

Track history (hours):
 
Tides and Currents Weather Stations Pressure Air Temp Water Temp Dewpoint Dewpoint Depression Visibility Wind Speed Wind Dir Waves Ship Positions

Geervliet

Last reported at 2017-Apr-25 11:26 UTC. Time now 2017-Apr-25 20:27 UTC.
Position N 40°59' E 028°60'.

Length 86 m; draft 5.5 m.

Type: Ship. MMSI: 246803000.

Date/timePositionNaut miles runAvg speedWind from/ knotsBaromVisibWave heightAir tempDewpointWater temp
2017-Apr-25 11:26N 40°59' E 028°60'4 7.9
2017-Apr-25 10:58N 40°56' E 028°58'3 6.3
2017-Apr-25 10:26N 40°57' E 028°54'0 0.0
2017-Apr-25 05:12N 40°57' E 028°54'0 0.0
2017-Apr-25 05:00N 40°57' E 028°54'0 0.0
2017-Apr-25 02:06N 40°57' E 028°54'0 0.0
2017-Apr-24 23:30N 40°57' E 028°54'0 0.0
2017-Apr-24 23:00N 40°57' E 028°54'0 0.0
2017-Apr-24 21:54N 40°57' E 028°54'0 0.0
2017-Apr-24 16:33N 40°57' E 028°54'0 0.0
2017-Apr-24 16:29N 40°57' E 028°54'3 4.5
2017-Apr-24 15:47N 40°54' E 028°54'3 8.6
2017-Apr-24 15:30N 40°52' E 028°52'510.2
2017-Apr-24 14:59N 40°51' E 028°45'  
2017-Apr-21 02:26N 36°29' E 014°44'4 9.6
2017-Apr-21 02:00N 36°29' E 014°38'5 9.5
2017-Apr-21 01:30N 36°29' E 014°33'5 9.5
2017-Apr-21 00:59N 36°30' E 014°27'5 9.4
2017-Apr-21 00:29N 36°31' E 014°21'5 9.4
2017-Apr-21 00:00N 36°32' E 014°15'5 9.4
2017-Apr-20 23:26N 36°33' E 014°09'4 9.5
2017-Apr-20 22:59N 36°34' E 014°04'5 9.6
2017-Apr-20 22:28N 36°36' E 013°58'  
2017-Apr-18 15:05N 37°09' E 003°03'1 9.7
2017-Apr-18 15:00N 37°09' E 003°02'10 9.6
2017-Apr-18 14:00N 37°08' E 002°50'5 9.5
2017-Apr-18 13:30N 37°07' E 002°44'6 9.4
2017-Apr-18 12:52N 37°05' E 002°37'23 9.7
2017-Apr-18 10:32N 37°00' E 002°09'2 9.5
2017-Apr-18 10:22N 37°00' E 002°07'4 9.8
2017-Apr-18 09:59N 36°59' E 002°03'510.0
2017-Apr-18 09:29N 36°58' E 001°57'510.4
2017-Apr-18 09:00N 36°56' E 001°51'510.3
2017-Apr-18 08:30N 36°55' E 001°44'510.1
2017-Apr-18 07:59N 36°54' E 001°38'610.2
2017-Apr-18 07:23N 36°52' E 001°30'410.4
2017-Apr-18 06:59N 36°52' E 001°25'710.7
2017-Apr-18 06:19N 36°51' E 001°17'5310.6
2017-Apr-18 01:19N 36°39' E 000°12'25110.1
2017-Apr-17 00:29N 36°03' W 004°56'810.7
2017-Apr-16 23:43N 36°02' W 005°06'2 9.8
2017-Apr-16 23:29N 36°01' W 005°09'510.4
2017-Apr-16 22:59N 36°00' W 005°15'511.3
2017-Apr-16 22:30N 35°59' W 005°22'612.2
2017-Apr-16 22:00N 35°57' W 005°29'611.6
2017-Apr-16 21:30N 35°55' W 005°36'140 9.8
2017-Apr-16 07:08N 36°23' W 008°26'310.2
2017-Apr-16 06:53N 36°24' W 008°30'410.1
2017-Apr-16 06:30N 36°25' W 008°34'510.2
2017-Apr-16 05:59N 36°26' W 008°41'510.0
2017-Apr-16 05:27N 36°28' W 008°47'4 9.8
2017-Apr-16 05:00N 36°29' W 008°52'5 9.8
2017-Apr-16 04:30N 36°30' W 008°58'8 9.9
2017-Apr-16 03:41N 36°32' W 009°08'6 9.7
2017-Apr-16 03:04N 36°34' W 009°15'4 9.2
2017-Apr-16 02:37N 36°36' W 009°19'2 9.8
2017-Apr-16 02:26N 36°37' W 009°21'15 9.6
2017-Apr-16 00:53N 36°49' W 009°33'410.0
2017-Apr-16 00:30N 36°53' W 009°34'510.2
2017-Apr-16 00:00N 36°58' W 009°35'510.2
2017-Apr-15 23:29N 37°03' W 009°37'510.1
2017-Apr-15 22:59N 37°08' W 009°39'510.2
2017-Apr-15 22:28N 37°13' W 009°40'510.1
2017-Apr-15 22:00N 37°17' W 009°42'510.1
2017-Apr-15 21:30N 37°22' W 009°43'510.3
2017-Apr-15 21:00N 37°27' W 009°45'510.7
2017-Apr-15 20:30N 37°32' W 009°46'510.5
2017-Apr-15 20:00N 37°38' W 009°48'510.4
2017-Apr-15 19:30N 37°43' W 009°49'510.4
2017-Apr-15 19:00N 37°48' W 009°50'510.7
2017-Apr-15 18:30N 37°53' W 009°51'510.8
2017-Apr-15 18:00N 37°58' W 009°53'510.4
2017-Apr-15 17:30N 38°03' W 009°54'510.4
2017-Apr-15 17:00N 38°08' W 009°56'510.5
2017-Apr-15 16:30N 38°14' W 009°58'510.0
2017-Apr-15 16:00N 38°18' W 009°59'510.0
2017-Apr-15 15:31N 38°23' W 010°01'510.1
2017-Apr-15 15:00N 38°28' W 010°02'710.1
2017-Apr-15 14:20N 38°35' W 010°04'8 9.9
2017-Apr-15 13:28N 38°43' W 010°06'510.0
2017-Apr-15 13:00N 38°48' W 010°06'5 9.9
2017-Apr-15 12:31N 38°53' W 010°06'5 9.8
2017-Apr-15 12:00N 38°58' W 010°07'510.5
2017-Apr-15 11:31N 39°03' W 010°07'  
Track history (hours):
 
Tides and Currents Weather Stations Pressure Air Temp Water Temp Dewpoint Dewpoint Depression Visibility Wind Speed Wind Dir Waves Ship Positions

Geervliet

Last reported at 2017-Apr-25 11:26 UTC. Time now 2017-Apr-25 20:27 UTC.
Position N 40°59' E 028°60'.

Length 86 m; draft 5.5 m.

Type: Ship. MMSI: 246803000.

Date/timePositionNaut miles runAvg speedWind from/ knotsBaromVisibWave heightAir tempDewpointWater temp
2017-Apr-25 11:26N 40°59' E 028°60'4 7.9
2017-Apr-25 10:58N 40°56' E 028°58'3 6.3
2017-Apr-25 10:26N 40°57' E 028°54'0 0.0
2017-Apr-25 05:12N 40°57' E 028°54'0 0.0
2017-Apr-25 05:00N 40°57' E 028°54'0 0.0
2017-Apr-25 02:06N 40°57' E 028°54'0 0.0
2017-Apr-24 23:30N 40°57' E 028°54'0 0.0
2017-Apr-24 23:00N 40°57' E 028°54'0 0.0
2017-Apr-24 21:54N 40°57' E 028°54'0 0.0
2017-Apr-24 16:33N 40°57' E 028°54'0 0.0
2017-Apr-24 16:29N 40°57' E 028°54'3 4.5
2017-Apr-24 15:47N 40°54' E 028°54'3 8.6
2017-Apr-24 15:30N 40°52' E 028°52'510.2
2017-Apr-24 14:59N 40°51' E 028°45'  
2017-Apr-21 02:26N 36°29' E 014°44'4 9.6
2017-Apr-21 02:00N 36°29' E 014°38'5 9.5
2017-Apr-21 01:30N 36°29' E 014°33'5 9.5
2017-Apr-21 00:59N 36°30' E 014°27'5 9.4
2017-Apr-21 00:29N 36°31' E 014°21'5 9.4
2017-Apr-21 00:00N 36°32' E 014°15'5 9.4
2017-Apr-20 23:26N 36°33' E 014°09'4 9.5
2017-Apr-20 22:59N 36°34' E 014°04'5 9.6
2017-Apr-20 22:28N 36°36' E 013°58'  
2017-Apr-18 15:05N 37°09' E 003°03'1 9.7
2017-Apr-18 15:00N 37°09' E 003°02'10 9.6
2017-Apr-18 14:00N 37°08' E 002°50'5 9.5
2017-Apr-18 13:30N 37°07' E 002°44'6 9.4
2017-Apr-18 12:52N 37°05' E 002°37'23 9.7
2017-Apr-18 10:32N 37°00' E 002°09'2 9.5
2017-Apr-18 10:22N 37°00' E 002°07'4 9.8
2017-Apr-18 09:59N 36°59' E 002°03'510.0
2017-Apr-18 09:29N 36°58' E 001°57'510.4
2017-Apr-18 09:00N 36°56' E 001°51'510.3
2017-Apr-18 08:30N 36°55' E 001°44'510.1
2017-Apr-18 07:59N 36°54' E 001°38'610.2
2017-Apr-18 07:23N 36°52' E 001°30'410.4
2017-Apr-18 06:59N 36°52' E 001°25'710.7
2017-Apr-18 06:19N 36°51' E 001°17'5310.6
2017-Apr-18 01:19N 36°39' E 000°12'25110.1
2017-Apr-17 00:29N 36°03' W 004°56'810.7
2017-Apr-16 23:43N 36°02' W 005°06'2 9.8
2017-Apr-16 23:29N 36°01' W 005°09'510.4
2017-Apr-16 22:59N 36°00' W 005°15'511.3
2017-Apr-16 22:30N 35°59' W 005°22'612.2
2017-Apr-16 22:00N 35°57' W 005°29'611.6
2017-Apr-16 21:30N 35°55' W 005°36'140 9.8
2017-Apr-16 07:08N 36°23' W 008°26'310.2
2017-Apr-16 06:53N 36°24' W 008°30'410.1
2017-Apr-16 06:30N 36°25' W 008°34'510.2
2017-Apr-16 05:59N 36°26' W 008°41'510.0
2017-Apr-16 05:27N 36°28' W 008°47'4 9.8
2017-Apr-16 05:00N 36°29' W 008°52'5 9.8
2017-Apr-16 04:30N 36°30' W 008°58'8 9.9
2017-Apr-16 03:41N 36°32' W 009°08'6 9.7
2017-Apr-16 03:04N 36°34' W 009°15'4 9.2
2017-Apr-16 02:37N 36°36' W 009°19'2 9.8
2017-Apr-16 02:26N 36°37' W 009°21'15 9.6
2017-Apr-16 00:53N 36°49' W 009°33'410.0
2017-Apr-16 00:30N 36°53' W 009°34'510.2
2017-Apr-16 00:00N 36°58' W 009°35'510.2
2017-Apr-15 23:29N 37°03' W 009°37'510.1
2017-Apr-15 22:59N 37°08' W 009°39'510.2
2017-Apr-15 22:28N 37°13' W 009°40'510.1
2017-Apr-15 22:00N 37°17' W 009°42'510.1
2017-Apr-15 21:30N 37°22' W 009°43'510.3
2017-Apr-15 21:00N 37°27' W 009°45'510.7
2017-Apr-15 20:30N 37°32' W 009°46'510.5
2017-Apr-15 20:00N 37°38' W 009°48'510.4
2017-Apr-15 19:30N 37°43' W 009°49'510.4
2017-Apr-15 19:00N 37°48' W 009°50'510.7
2017-Apr-15 18:30N 37°53' W 009°51'510.8
2017-Apr-15 18:00N 37°58' W 009°53'510.4
2017-Apr-15 17:30N 38°03' W 009°54'510.4
2017-Apr-15 17:00N 38°08' W 009°56'510.5
2017-Apr-15 16:30N 38°14' W 009°58'510.0
2017-Apr-15 16:00N 38°18' W 009°59'510.0
2017-Apr-15 15:31N 38°23' W 010°01'510.1
2017-Apr-15 15:00N 38°28' W 010°02'710.1
2017-Apr-15 14:20N 38°35' W 010°04'8 9.9
2017-Apr-15 13:28N 38°43' W 010°06'510.0
2017-Apr-15 13:00N 38°48' W 010°06'5 9.9
2017-Apr-15 12:31N 38°53' W 010°06'5 9.8
2017-Apr-15 12:00N 38°58' W 010°07'510.5
2017-Apr-15 11:31N 39°03' W 010°07'  

Dump ship's entire track history